Hemingford, Nebraska
Current Conditions -  °F | °C
As of 9:53 PM on Saturday 20 Dec 2014 (Local Time) from KAIA Reporting Station
Scattered Clouds Scattered Clouds  
Wind Chill: -10°   Ceiling: Unl
Heat Index: -6°   Visibility: 10mi
Dew Point: -7°   Wind: 7mph
Humidity: 89%   Direction: 250°WSW
Pressure: 29.87"   Gusts: NA
Location:  42.32°N, 103.07°W
Report Text: KAIA 210453Z AUTO 25006KT 10SM FEW070 SCT095 M06/M07 A2987 RMK AO2 SLP154 T10561072
Loading
Personal Weather Stations






























Interactive Weather Map New forecast layout! Learn more

10-Day Weather Forecast

Advertisements
Track Severe Weather on mobile